Aviation Digital Data Service (ADDS)

Output produced by METARs form (0659 UTC 24 March 2019)
found at http://www.aviationweather.gov/metar/data/
 
CYYC 240600Z 34006KT 2SM BR OVC004 01/00 A3018 RMK ST8 CIG VRB 3-5 SLP256
TAF CYYC 240547Z 2406/2506 36008KT 1/2SM FG OVC002 
     TEMPO 2406/2408 21/2SM BR OVC005 
     FM240800 02008KT 1/4SM FG OVC002 
     TEMPO 2408/2412 2SM -SN BR OVC005 
     FM241200 02005KT 1/8SM FZFG VV001 
     TEMPO 2413/2416 1/2SM FZFG OVC004 
     FM241600 08007KT 1SM BR BKN002 
     TEMPO 2416/2420 3SM BR OVC006 
     FM242000 10008KT 6SM BR SCT005 BKN010 RMK NXT FCST BY 240900Z
       
CYBW 240644Z AUTO 32004KT 1 1/2SM BR OVC003 00/M00 A3019 RMK SLP258
TAF AMD CYBW 240329Z 2403/2404 04008KT 2SM BR SCT140 BKN230 
     TEMPO 2403/2404 1/2SM FG SCT002 BKN140 RMK FCST BASED ON AUTO OBS. NXT FCST
WILL BE ISSUED AT 241145Z
       
CYEG 240600Z 10010KT 15SM SCT220 02/M02 A3024 RMK CI3 FROIN SLP277
TAF CYEG 240547Z 2406/2506 06003KT P6SM FEW060 SCT220 
     FM240900 VRB03KT 6SM BR BKN220 
     TEMPO 2409/2418 2SM BR 
     PROB30 2413/2418 1/4SM FZFG 
     FM241800 11010KT P6SM BKN008 BKN250 
     TEMPO 2418/2421 2SM BR 
     FM242100 12012KT P6SM SCT006 BKN012 RMK NXT FCST BY 240900Z
       
CZVL 240600Z AUTO 08004KT 060V140 9SM CLR 01/M03 A3026 RMK SLP277
TAF CZVL 240547Z 2406/2418 08003KT P6SM FEW060 BKN220 
     FM240900 10006KT 6SM BR BKN220 
     TEMPO 2409/2418 2SM BR 
     PROB30 2413/2418 1/4SM FZFG RMK FCST BASED ON AUTO OBS. NXT FCST BY 241200Z
       
CYET 240600Z AUTO 04003KT 9SM OVC032 04/M01 A3022 RMK SLP264
CYPY 240600Z AUTO 09008KT 9SM CLR M11/M17 A3052 RMK SLP360
TAF CYPY 232339Z 2400/2406 06012KT P6SM SKC RMK FCST BASED ON AUTO OBS. NXT FCST
WILL BE ISSUED AT 241145Z
       
CYMM 240600Z AUTO 11005KT 9SM CLR M03/M09 A3044 RMK SLP334
TAF CYMM 240638Z 2407/2419 11006KT P6SM FEW030 SCT240 RMK FCST BASED ON AUTO
OBS. NXT FCST BY 241300Z
       
CYQU 240600Z 19008KT 25SM BKN074 02/M01 A3020 RMK AC5 SLP260
TAF CYQU 240638Z 2407/2419 VRB03KT P6SM BKN070 
     FM240900 05005KT P6SM FEW040 SCT250 
     FM241600 01005KT P6SM SCT030 BKN250 
     TEMPO 2416/2419 FEW010 BKN030 RMK NXT FCST BY 241300Z
       
CYOJ 240600Z AUTO 14009KT 9SM CLR M03/M10 A3037 RMK SLP308
TAF CYOJ 240638Z 2407/2419 14007KT P6SM SCT260 RMK FCST BASED ON AUTO OBS. NXT
FCST BY 241300Z
       
CYQL 240657Z AUTO 33008KT 9SM BKN014 04/03 A3011 RMK SLP220
TAF CYQL 240547Z 2406/2418 34010KT 6SM BR FEW015 SCT100 BKN220 
     TEMPO 2406/2409 2SM -SHRA BR BKN015 OVC050 
     FM240900 36012KT 3SM BR OVC015 
     TEMPO 2409/2412 2SM -RASN BR OVC006 
     FM241200 01010KT 3SM BR OVC010 
     TEMPO 2412/2418 1/2SM FG OVC004 RMK FCST BASED ON AUTO OBS. NXT FCST BY
241200Z
       
CYLL 240600Z AUTO 07008KT 9SM CLR M02/M03 A3031 RMK SLP296
TAF CYLL 240547Z 2406/2418 06008KT P6SM SCT250 
     FM240900 11010KT P6SM SCT008 
     TEMPO 2409/2411 BKN008 
     PROB30 2411/2414 1/2SM FZFG 
     FM241400 12008KT P6SM SCT010 RMK FCST BASED ON AUTO OBS. NXT FCST BY
241200Z
       
CYXH 240644Z AUTO 05006KT 9SM BKN014 05/03 A3011 RMK SLP213
TAF AMD CYXH 240655Z 2406/2418 05010KT P6SM SCT012 BKN025 
     TEMPO 2406/2418 BKN012 
     PROB30 2411/2415 2SM BR BKN006 RMK FCST BASED ON AUTO OBS. NXT FCST BY
241200Z
       
CYPE 240600Z 08007KT 15SM FEW075 SCT250 03/M03 A3025 RMK AC1CI2 SLP268
TAF CYPE 240638Z 2407/2419 08006KT P6SM FEW070 SCT250 
     BECMG 2416/2418 13005KT RMK NXT FCST BY 241300Z
       
CZPC 240627Z AUTO 00000KT 4SM HZ OVC023 05/02 A3012 RMK SLP219
CYQF 240600Z 30005KT 1/8SM FG VV002 00/00 A3021 RMK FG8 SLP276
TAF CYQF 240547Z 2406/2418 35004KT 1/8SM FZFG VV001 
     FM241000 VRB03KT 1/4SM FZFG VV002 
     TEMPO 2410/2412 2SM BR SCT002 BKN220 
     FM241200 08005KT 6SM BR BKN012 
     TEMPO 2412/2418 2SM BR BKN006 
     PROB30 2413/2418 1/2SM FZFG RMK NXT FCST BY 241200Z
       
CYZH 240600Z AUTO 11006KT 9SM CLR 02/M03 A3030 RMK SLP285
TAF CYZH 240638Z 2407/2419 11007KT P6SM FEW050 SCT250 RMK FCST BASED ON AUTO
OBS. NXT FCST BY 241300Z
       
CYZU 240400Z 11002KT 15SM OVC066 05/M03 A3022 RMK AC8 LAST STFD OBS/NXT 241200Z SLP263
TAF AMD CYZU 232011Z 2320/2323 12012KT P6SM SCT030 
     TEMPO 2320/2323 BKN008 RMK NXT FCST WILL BE ISSUED AT 241415Z
       
CYXX 240600Z 00000KT 15SM FEW250 07/04 A3020 RMK CI1 SLP230
TAF CYXX 240540Z 2406/2506 VRB03KT P6SM FEW120 BKN200 
     FM241400 VRB03KT P6SM SCT080 BKN120 
     FM250400 VRB03KT P6SM SCT060 RMK NXT FCST BY 241200Z
       
CBBC 240600Z AUTO 01002KT 9SM CLR 02/00 A3024 RMK SLP242
TAF CBBC 240038Z 2401/2405 VRB03KT P6SM SCT060 
     TEMPO 2401/2404 P6SM -SHRA BKN060 RMK FCST BASED ON AUTO OBS. NXT FCST WILL
BE ISSUED AT 241245Z
       
CYBD 240100Z 26012KT 15SM FEW090 14/01 A3017 RMK AC1 LAST STFD OBS/NEXT 241300 UTC SLP218
CYCP 240100Z VRB04KT 15SM VCSH FEW073CB SCT120 BKN250 12/01 A3009 RMK CB2AC2CI2 LAST STFD OBS/NEXT 241300Z SLP213
CYBL 240400Z 31002KT 15SM FEW080 04/02 A3021 RMK AC1 AC TR LAST STFD OBS/NEXT 241300 UTC SLP236
TAF CYBL 240038Z 2401/2404 09005KT P6SM FEW050 
     TEMPO 2401/2404 BKN050 RMK NXT FCST WILL BE ISSUED AT 241445Z
       
CYCG 240400Z 00000KT 15SM FEW100 05/01 A3008 RMK AC1 LAST STFD OBS/NEXT 241300Z SLP201
TAF CYCG 240038Z 2401/2404 36005KT P6SM FEW050 SCT070 BKN240 
     TEMPO 2401/2404 P6SM -SHRA BKN050 OVC070 RMK NXT FCST WILL BE ISSUED AT
241445Z
       
CYCQ 240100Z 01003KT 35SM FEW050 SCT060 BKN090 OVC120 08/03 A3014 RMK SC2SC1AS3AC2 DIST PCPN W-NW VIRGA E+S DIST FU MTS W LAST STFD OBS/NEXT 241300Z SLP236
CYXC 240600Z 25005KT 25SM SCT080 BKN200 07/M00 A3007 RMK AC4CI2 SLP200
TAF CYXC 240638Z 2407/2419 25005KT P6SM SCT080 BKN200 
     FM241200 VRB03KT P6SM OVC050 
     TEMPO 2412/2418 5SM -SHRA BR BKN020 RMK NXT FCST BY 241300Z
       
CYDQ 240600Z AUTO 00000KT 9SM BKN120 02/M00 A3020 RMK SLP257
TAF CYDQ 240038Z 2401/2405 VRB03KT P6SM BKN070 
     FM240300 08004KT P6SM BKN040 RMK FCST BASED ON AUTO OBS. NXT FCST WILL BE
ISSUED AT 241245Z
       
CYDL 240600Z AUTO 00000KT 9SM SCT170 M02/M04 A3021 RMK SLP259
TAF CYDL 232339Z 2400/2402 VRB03KT P6SM BKN060 RMK FCST BASED ON AUTO OBS. NXT
FCST WILL BE ISSUED AT 241545Z
       
CYYE 240600Z 34004KT 15SM SCT120 BKN150 BKN220 00/M04 A3025 RMK AC3AC2CI1 SLP266
TAF CYYE 240638Z 2407/2419 VRB03KT P6SM FEW040 SCT120 BKN220 RMK NXT FCST BY
241300Z
       
CYXJ 240600Z 00000KT 15SM FEW050 BKN090 06/M01 A3020 RMK SC2AC4 SLP255
TAF CYXJ 240638Z 2407/2419 VRB03KT P6SM SCT050 BKN090 
     FM241300 VRB03KT P6SM FEW040 SCT250 RMK NXT FCST BY 241300Z
       
CYKA 240600Z 29004KT 40SM FEW100 BKN220 07/M01 A3012 RMK AC1CI5 SLP209
TAF CYKA 240638Z 2407/2419 VRB03KT P6SM FEW100 BKN220 
     FM241200 VRB03KT P6SM FEW100 OVC160 
     BECMG 2413/2415 28008KT RMK NXT FCST BY 241300Z
       
CYLW 240600Z AUTO 35005KT 9SM BKN170 03/01 A3010 RMK SLP204
TAF CYLW 240638Z 2407/2419 35005KT P6SM FEW080 BKN180 RMK FCST BASED ON AUTO
OBS. NXT FCST BY 241300Z
       
CYZY 240600Z AUTO 14002KT 9SM SCT160 M00/M03 A3020 RMK SLP258
TAF CYZY 240638Z 2407/2409 VRB03KT P6SM SCT160 RMK FCST BASED ON AUTO OBS. NXT
FCST WILL BE ISSUED AT 241445Z
       
CZMT 240100Z 15018G27KT 15SM BKN015 BKN040 09/05 A3016 RMK SC5SC1 LAST STFD OBS/NEXT 241400UTC SLP216
CYCD 240400Z 27005KT 15SM SKC 07/04 A3021 RMK LAST STFD OBS/NEXT 141300Z SLP232
TAF CYCD 232339Z 2400/2404 VRB03KT P6SM FEW060 SCT080 
     TEMPO 2400/2404 BKN080 RMK NXT FCST WILL BE ISSUED AT 241445Z
       
CYYF 240600Z 36006KT 15SM BKN150 08/01 A3010 RMK AC6 SLP199
TAF CYYF 240638Z 2407/2419 36005KT P6SM FEW100 OVC160 
     FM241500 35005KT P6SM BKN060 RMK NXT FCST BY 241300Z
       
CYZT 240600Z 24006KT 15SM FEW080 03/03 A3022 RMK AC1 SLP237
TAF CYZT 240638Z 2407/2419 VRB03KT P6SM FEW080 
     PROB30 2407/2412 1SM BR BKN004 RMK NXT FCST BY 241300Z
       
CYPW 240200Z 00000KT 30SM FEW024 10/05 A3019 RMK CU1 CU TR LAST STFD OBS NEXT OBS 241300UTC SLP229
CYXS 240600Z AUTO 00000KT 9SM CLR M02/M04 A3019 RMK SLP256
TAF CYXS 240638Z 2407/2419 VRB03KT P6SM FEW200 
     FM241200 03005KT P6SM SCT200 RMK FCST BASED ON AUTO OBS. NXT FCST BY
241300Z
       
CYPR 240600Z AUTO 06006KT 9SM CLR 06/02 A3025 RMK SLP247
TAF CYPR 240638Z 2407/2419 07005KT P6SM SKC RMK FCST BASED ON AUTO OBS. NXT FCST
BY 241300Z
       
CYDC 240100Z VRB02KT 15SM SCT069 BKN078 OVC280 13/M02 A3007 RMK AC3AC3CS2 LAST STFD OBS/NEXT 24 1300UTC SLP194 DENSITY ALT 2500FT
CYQZ 240600Z AUTO 00000KT 9SM CLR M01/M02 A3020 RMK SLP252
TAF CYQZ 240038Z 2401/2406 32004KT P6SM FEW040 BKN240 RMK FCST BASED ON AUTO
OBS. NXT FCST WILL BE ISSUED AT 241145Z
       
CYRV 240600Z AUTO 05003KT 360V060 9SM CLR 01/M01 A3013 RMK SLP221
CYZP 240600Z AUTO 13018KT 9SM BKN013 OVC018 08/06 A3020 RMK SLP230
TAF CYZP 240638Z 2407/2419 13015KT P6SM FEW012 
     TEMPO 2407/2416 FEW008 BKN012 
     BECMG 2410/2412 13010KT 
     FM241600 VRB03KT P6SM FEW012 
     TEMPO 2416/2418 BKN012 RMK FCST BASED ON AUTO OBS. NXT FCST BY 241300Z
       
CYYD 240600Z AUTO 24002KT 9SM CLR M01/M03 A3024 RMK SLP260
TAF CYYD 240038Z 2401/2406 VRB03KT P6SM FEW060 SCT240 RMK NXT FCST WILL BE
ISSUED AT 241345Z
       
CZST 240100Z 00000KT 15SM BKN090 08/06 A3023 RMK AC6 LAST STFD OBS/NEXT241300Z SLP239
CYXT 240600Z 07003KT 340V090 20SM SKC 01/M01 A3027 RMK SLP261
TAF CYXT 240638Z 2407/2419 VRB03KT P6SM FEW200 
     BECMG 2410/2412 01010KT RMK NXT FCST BY 241300Z
       
CYAZ 240100Z 17004KT 150V210 15SM FEW030 BKN053 10/07 A3021 RMK CU2SC3 LAST STFD OBS/NEXT 241300UTC SLP231
TAF AMD CYAZ 232101Z 2321/2401 VRB03KT P6SM FEW025 SCT050 
     TEMPO 2321/2401 P6SM -SHRA SCT025 BKN040 RMK NXT FCST WILL BE ISSUED AT
241445Z
       
CYVR 240600Z 24004KT 20SM FEW240 06/04 A3020 RMK CS2 SLP227
TAF CYVR 240540Z 2406/2512 08005KT P6SM FEW240 
     FM241200 10005KT P6SM FEW030 SCT100 OVC180 
     FM241600 12005KT P6SM FEW050 BKN080 
     BECMG 2418/2420 27007KT 
     FM250200 VRB03KT P6SM SCT080 
     BECMG 2506/2508 07007KT RMK NXT FCST BY 240900Z
       
CYYJ 240600Z 30009KT 15SM FEW250 08/05 A3021 RMK CI1 CI TR SLP230
TAF CYYJ 240540Z 2406/2506 VRB03KT P6SM FEW050 SCT250 
     FM241500 28005KT P6SM FEW040 SCT140 
     FM250000 VRB03KT P6SM FEW240 RMK NXT FCST BY 241200Z
       
CYWL 240600Z 33009KT 15SM BKN240 04/M02 A3015 RMK CI5 SLP236
TAF CYWL 240638Z 2407/2419 33008KT P6SM BKN240 
     FM240900 30006KT P6SM SCT050 BKN240 
     TEMPO 2409/2415 P6SM -RA BKN050 
     FM241500 VRB03KT P6SM SCT240 RMK NXT FCST BY 241300Z